Time;durP1;ratioP1;P1;durP2;ratioP2;P2;SDS_P1;SDS_P2;PMS_P1;PMS_P2;Temp;Humidity;BMP_temperature;BMP_pressure;BME280_temperature;BME280_humidity;BME280_pressure;Samples;Min_cycle;Max_cycle;Signal;HPM_P1;HPM_P2
2022/03/24 00:01:26;;;;;;;21.73;12.80;;;5.90;99.90;;;;;;5061627;28;20246;-72
2022/03/24 00:03:52;;;;;;;19.87;11.90;;;5.90;99.90;;;;;;5048699;28;20181;-72
2022/03/24 00:06:17;;;;;;;23.40;13.17;;;5.90;99.90;;;;;;5047788;28;20688;-72
2022/03/24 00:08:42;;;;;;;24.87;14.17;;;6.00;99.90;;;;;;5048654;28;20283;-71
2022/03/24 00:11:08;;;;;;;21.87;13.37;;;6.00;99.90;;;;;;5061298;28;20189;-72
2022/03/24 00:13:33;;;;;;;20.73;12.23;;;6.00;99.90;;;;;;5065082;28;20741;-72
2022/03/24 00:15:59;;;;;;;21.43;12.53;;;6.00;99.90;;;;;;5068134;28;20535;-72
2022/03/24 00:18:25;;;;;;;21.90;13.30;;;6.00;99.90;;;;;;5058812;28;20266;-72
2022/03/24 00:20:51;;;;;;;22.60;12.97;;;6.20;99.90;;;;;;5064627;28;20284;-72
2022/03/24 00:23:16;;;;;;;18.27;12.83;;;6.10;99.90;;;;;;5074672;28;20180;-72
2022/03/24 00:25:42;;;;;;;24.47;12.87;;;5.80;99.90;;;;;;5074787;28;20719;-72
2022/03/24 00:28:07;;;;;;;25.33;13.90;;;5.70;99.90;;;;;;5058166;28;20532;-71
2022/03/24 00:30:33;;;;;;;30.93;16.07;;;5.70;99.90;;;;;;5051635;28;20183;-71
2022/03/24 00:32:58;;;;;;;25.63;13.60;;;6.20;99.90;;;;;;5050272;28;20208;-71
2022/03/24 00:35:24;;;;;;;28.73;13.90;;;5.70;99.90;;;;;;5065599;28;20387;-71
2022/03/24 00:37:50;;;;;;;22.67;13.33;;;7.10;99.90;;;;;;5067224;28;20169;-71
2022/03/24 00:40:17;;;;;;;21.17;13.10;;;5.50;99.90;;;;;;5054858;28;20263;-72
2022/03/24 00:42:43;;;;;;;21.30;12.70;;;5.50;99.90;;;;;;5049274;28;20426;-72
2022/03/24 00:45:12;;;;;;;21.63;12.50;;;5.40;99.90;;;;;;5057769;28;20496;-71
2022/03/24 00:47:39;;;;;;;18.77;12.20;;;5.40;99.90;;;;;;5049630;28;20439;-71
2022/03/24 00:50:05;;;;;;;22.33;12.77;;;5.30;99.90;;;;;;5046620;28;20538;-72
2022/03/24 00:52:31;;;;;;;22.50;13.80;;;5.30;99.90;;;;;;5068394;28;21028;-71
2022/03/24 00:54:56;;;;;;;19.60;12.07;;;5.40;99.90;;;;;;5067202;28;20449;-72
2022/03/24 00:57:22;;;;;;;21.00;11.90;;;5.10;99.90;;;;;;5066322;28;20172;-72
2022/03/24 00:59:48;;;;;;;28.23;13.60;;;5.10;99.90;;;;;;5061743;28;20193;-72
2022/03/24 01:02:14;;;;;;;22.10;13.63;;;5.10;99.90;;;;;;5067789;28;20168;-71
2022/03/24 01:04:41;;;;;;;25.10;14.10;;;5.00;99.90;;;;;;5061295;28;20628;-71
2022/03/24 01:07:07;;;;;;;21.90;13.80;;;5.00;99.90;;;;;;5064730;28;20462;-71
2022/03/24 01:09:32;;;;;;;21.30;13.97;;;5.20;99.90;;;;;;5049391;28;20864;-72
2022/03/24 01:11:58;;;;;;;21.00;13.07;;;5.10;99.90;;;;;;5049041;28;20184;-70
2022/03/24 01:14:25;;;;;;;22.63;13.40;;;4.90;99.90;;;;;;5059248;28;20200;-71
2022/03/24 01:16:51;;;;;;;20.60;12.97;;;4.90;99.90;;;;;;5060301;28;20208;-71
2022/03/24 01:19:17;;;;;;;23.10;13.47;;;4.90;99.90;;;;;;5050228;28;20465;-71
2022/03/24 01:21:43;;;;;;;20.80;14.00;;;5.30;99.90;;;;;;5065421;28;20407;-71
2022/03/24 01:24:08;;;;;;;26.10;14.17;;;4.80;99.90;;;;;;5078397;28;20189;-71
2022/03/24 01:26:35;;;;;;;21.10;13.27;;;4.80;99.90;;;;;;5063177;28;20256;-72
2022/03/24 01:29:01;;;;;;;20.60;12.90;;;4.80;99.90;;;;;;5050600;28;20604;-71
2022/03/24 01:31:27;;;;;;;20.17;12.90;;;4.90;99.90;;;;;;5046404;28;20511;-72
2022/03/24 01:33:52;;;;;;;24.90;14.50;;;4.80;99.90;;;;;;5059296;28;20587;-71
2022/03/24 01:36:18;;;;;;;22.97;14.23;;;4.80;99.90;;;;;;5067404;28;20634;-71
2022/03/24 01:38:44;;;;;;;20.47;12.80;;;4.90;99.90;;;;;;5051091;28;20535;-71
2022/03/24 01:41:10;;;;;;;21.20;12.63;;;4.90;99.90;;;;;;5045745;28;20170;-71
2022/03/24 01:43:36;;;;;;;20.80;13.87;;;5.00;99.90;;;;;;5062401;28;20182;-71
2022/03/24 01:46:02;;;;;;;27.93;14.83;;;5.50;99.90;;;;;;5068983;28;20422;-71
2022/03/24 01:48:27;;;;;;;19.23;12.63;;;5.00;99.90;;;;;;5069854;28;20196;-71
2022/03/24 01:50:53;;;;;;;21.80;12.90;;;5.10;99.90;;;;;;5057003;28;20445;-70
2022/03/24 01:53:19;;;;;;;22.60;13.50;;;5.10;99.90;;;;;;5063992;28;20626;-71
2022/03/24 01:55:47;;;;;;;23.13;14.30;;;5.10;99.90;;;;;;5067185;28;20426;-71
2022/03/24 01:58:13;;;;;;;22.03;14.00;;;4.90;99.90;;;;;;5066976;28;20204;-71
2022/03/24 02:00:39;;;;;;;28.43;14.67;;;4.80;99.90;;;;;;5061390;28;20909;-71
2022/03/24 02:03:05;;;;;;;25.20;14.57;;;5.00;99.90;;;;;;5062681;28;20349;-72
2022/03/24 02:05:36;;;;;;;22.10;13.93;;;4.90;99.90;;;;;;5065200;28;20461;-71
2022/03/24 02:08:03;;;;;;;24.37;14.00;;;4.50;99.90;;;;;;5051859;28;20809;-71
2022/03/24 02:10:33;;;;;;;24.03;14.20;;;4.50;99.90;;;;;;5047204;28;20428;-71
2022/03/24 02:12:59;;;;;;;23.43;14.30;;;4.30;99.90;;;;;;5059499;28;20454;-71
2022/03/24 02:15:26;;;;;;;23.60;14.87;;;4.60;99.90;;;;;;5064424;28;20430;-71
2022/03/24 02:17:52;;;;;;;22.57;14.10;;;4.40;99.90;;;;;;5065654;28;20573;-71
2022/03/24 02:20:19;;;;;;;22.77;13.87;;;4.70;99.90;;;;;;5059650;28;20448;-71
2022/03/24 02:22:45;;;;;;;24.10;14.47;;;4.80;99.90;;;;;;5073332;28;20608;-71
2022/03/24 02:25:11;;;;;;;23.47;14.40;;;4.50;99.90;;;;;;5085115;28;20426;-72
2022/03/24 02:27:38;;;;;;;20.53;13.37;;;4.40;99.90;;;;;;5080144;28;20934;-72
2022/03/24 02:30:05;;;;;;;18.47;12.43;;;4.50;99.90;;;;;;5052349;28;20279;-71
2022/03/24 02:32:31;;;;;;;24.77;13.80;;;4.30;99.90;;;;;;5060892;28;20428;-71
2022/03/24 02:34:57;;;;;;;19.70;12.60;;;4.20;99.90;;;;;;5046549;28;20996;-71
2022/03/24 02:37:25;;;;;;;21.57;13.10;;;4.10;99.90;;;;;;5050575;28;20672;-71
2022/03/24 02:39:58;;;;;;;20.20;12.90;;;4.10;99.90;;;;;;5063523;28;20212;-71
2022/03/24 02:42:26;;;;;;;22.53;13.40;;;4.00;99.90;;;;;;5061518;28;20411;-71
2022/03/24 02:44:55;;;;;;;23.53;14.10;;;4.00;99.90;;;;;;5056580;28;20944;-71
2022/03/24 02:47:22;;;;;;;20.10;13.20;;;4.60;99.90;;;;;;5062369;28;20689;-72
2022/03/24 02:49:49;;;;;;;28.30;14.93;;;4.10;99.90;;;;;;5045740;28;20525;-71
2022/03/24 02:52:15;;;;;;;21.23;13.70;;;4.00;99.90;;;;;;5066735;28;20518;-72
2022/03/24 02:54:42;;;;;;;23.20;13.70;;;3.90;99.90;;;;;;5082260;28;20469;-71
2022/03/24 02:57:08;;;;;;;23.70;14.27;;;3.80;99.90;;;;;;5068115;28;20457;-71
2022/03/24 02:59:34;;;;;;;21.07;13.33;;;3.80;99.90;;;;;;5053272;28;20459;-72
2022/03/24 03:02:13;;;;;;;26.30;14.73;;;3.80;99.90;;;;;;5057875;28;20429;-72
2022/03/24 03:04:39;;;;;;;26.73;15.30;;;3.80;99.90;;;;;;5066525;28;20262;-71
2022/03/24 03:07:05;;;;;;;29.53;14.67;;;3.70;99.90;;;;;;5064939;28;20954;-72
2022/03/24 03:09:33;;;;;;;25.67;13.90;;;3.60;99.90;;;;;;5055493;28;20570;-71
2022/03/24 03:11:58;;;;;;;23.90;14.20;;;4.10;99.90;;;;;;5049203;28;20221;-71
2022/03/24 03:14:25;;;;;;;24.63;14.20;;;3.60;99.90;;;;;;5061423;28;21117;-72
2022/03/24 03:16:51;;;;;;;21.37;13.47;;;3.60;99.90;;;;;;5065483;28;20234;-71
2022/03/24 03:19:19;;;;;;;26.07;14.10;;;3.60;99.90;;;;;;5054700;28;20455;-71
2022/03/24 03:21:45;;;;;;;24.07;14.17;;;3.60;99.90;;;;;;5053450;28;20643;-71
2022/03/24 03:24:12;;;;;;;30.73;14.53;;;3.90;99.90;;;;;;5062678;28;20423;-72
2022/03/24 03:26:38;;;;;;;27.70;14.17;;;3.60;99.90;;;;;;5059819;28;20458;-71
2022/03/24 03:29:04;;;;;;;24.20;14.20;;;3.60;99.90;;;;;;5065595;28;20446;-71
2022/03/24 03:31:29;;;;;;;23.83;13.40;;;3.70;99.90;;;;;;5047474;28;20953;-71
2022/03/24 03:33:56;;;;;;;22.07;13.30;;;3.70;99.90;;;;;;5046420;28;20193;-71
2022/03/24 03:36:23;;;;;;;25.00;13.90;;;3.60;99.90;;;;;;5043931;28;20667;-71
2022/03/24 03:38:48;;;;;;;22.77;14.07;;;3.80;99.90;;;;;;5065342;28;20446;-71
2022/03/24 03:41:15;;;;;;;20.30;14.17;;;3.80;99.90;;;;;;5063971;28;20431;-70
2022/03/24 03:43:42;;;;;;;27.60;14.50;;;4.00;99.90;;;;;;5065289;28;20191;-70
2022/03/24 03:46:08;;;;;;;20.43;13.60;;;4.00;99.90;;;;;;5046457;28;20916;-71
2022/03/24 03:48:37;;;;;;;24.83;14.30;;;3.60;99.90;;;;;;5055815;28;20914;-72
2022/03/24 03:51:07;;;;;;;23.30;13.73;;;3.60;99.90;;;;;;5066238;28;20413;-72
2022/03/24 03:53:34;;;;;;;26.77;13.90;;;3.50;99.90;;;;;;5074831;28;20882;-72
2022/03/24 03:56:02;;;;;;;22.63;15.03;;;3.50;99.90;;;;;;5085502;28;20420;-71
2022/03/24 03:58:28;;;;;;;30.80;15.43;;;3.60;99.90;;;;;;5065456;28;20446;-71
2022/03/24 04:00:53;;;;;;;25.87;15.00;;;3.40;99.90;;;;;;5062876;28;20492;-72
2022/03/24 04:03:23;;;;;;;26.07;14.80;;;3.30;99.90;;;;;;5063539;28;20187;-71
2022/03/24 04:05:50;;;;;;;24.83;14.43;;;3.80;99.90;;;;;;5068052;28;20597;-71
2022/03/24 04:08:16;;;;;;;24.97;14.53;;;3.20;99.90;;;;;;5061334;28;20431;-72
2022/03/24 04:10:41;;;;;;;24.30;14.70;;;3.20;99.90;;;;;;5047098;28;20411;-71
2022/03/24 04:13:07;;;;;;;25.80;13.90;;;3.10;99.90;;;;;;5048376;28;20201;-71
2022/03/24 04:15:33;;;;;;;28.50;16.37;;;3.10;99.90;;;;;;5064665;28;20259;-72
2022/03/24 04:17:59;;;;;;;24.93;14.27;;;3.10;99.90;;;;;;5058116;28;20173;-72
2022/03/24 04:20:26;;;;;;;24.50;14.53;;;3.00;99.90;;;;;;5048383;28;20493;-72
2022/03/24 04:22:53;;;;;;;22.27;13.90;;;3.00;99.90;;;;;;5074460;28;20467;-71
2022/03/24 04:25:22;;;;;;;22.80;13.50;;;3.50;99.90;;;;;;5064506;28;20411;-71
2022/03/24 04:27:49;;;;;;;23.77;14.80;;;3.00;99.90;;;;;;5064049;28;20899;-71
2022/03/24 04:30:16;;;;;;;26.83;14.73;;;3.10;99.90;;;;;;5062764;28;20430;-71
2022/03/24 04:32:42;;;;;;;25.93;14.40;;;3.50;99.90;;;;;;5068578;28;20919;-71
2022/03/24 04:35:08;;;;;;;23.37;14.30;;;3.30;99.90;;;;;;5069665;28;20485;-72
2022/03/24 04:37:35;;;;;;;25.57;13.23;;;3.00;99.90;;;;;;5059656;28;20183;-72
2022/03/24 04:40:01;;;;;;;23.33;13.60;;;3.00;99.90;;;;;;5060496;28;20533;-72
2022/03/24 04:42:27;;;;;;;21.87;13.40;;;3.00;99.90;;;;;;5068085;28;20899;-71
2022/03/24 04:44:53;;;;;;;27.60;14.10;;;2.90;99.90;;;;;;5067149;28;20173;-72
2022/03/24 04:47:18;;;;;;;21.80;13.27;;;2.80;99.90;;;;;;5052568;28;20434;-72
2022/03/24 04:49:44;;;;;;;36.53;14.37;;;3.20;99.90;;;;;;5066537;28;20638;-71
2022/03/24 04:52:09;;;;;;;22.03;13.47;;;3.30;99.90;;;;;;5072931;28;20180;-71
2022/03/24 04:54:35;;;;;;;25.40;13.67;;;3.20;99.90;;;;;;5084472;28;20202;-71
2022/03/24 04:57:01;;;;;;;25.20;14.43;;;2.70;99.90;;;;;;5057953;28;20647;-71
2022/03/24 04:59:27;;;;;;;25.40;14.40;;;2.70;99.90;;;;;;5049264;28;20193;-71
2022/03/24 05:01:53;;;;;;;28.27;14.77;;;3.00;99.90;;;;;;5049366;28;20515;-71
2022/03/24 05:04:18;;;;;;;21.13;13.67;;;2.60;99.90;;;;;;5049267;28;20239;-71
2022/03/24 05:06:44;;;;;;;20.10;13.17;;;3.00;99.90;;;;;;5058917;28;20180;-71
2022/03/24 05:09:09;;;;;;;25.73;14.07;;;2.60;99.90;;;;;;5069306;28;20257;-71
2022/03/24 05:11:35;;;;;;;22.83;13.40;;;2.60;99.90;;;;;;5067156;28;20223;-71
2022/03/24 05:14:01;;;;;;;24.60;13.60;;;2.60;99.90;;;;;;5062923;28;20201;-71
2022/03/24 05:16:28;;;;;;;25.80;14.40;;;3.00;99.90;;;;;;5052714;28;20232;-71
2022/03/24 05:18:54;;;;;;;24.50;13.87;;;2.60;99.90;;;;;;5054140;28;20477;-71
2022/03/24 05:21:19;;;;;;;25.20;14.37;;;2.60;99.90;;;;;;5060619;28;20418;-72
2022/03/24 05:23:45;;;;;;;22.50;14.23;;;2.70;99.90;;;;;;5079800;28;20283;-72
2022/03/24 05:26:10;;;;;;;23.57;15.13;;;2.70;99.90;;;;;;5070813;28;20246;-72
2022/03/24 05:28:36;;;;;;;24.60;14.90;;;2.70;99.90;;;;;;5067001;28;20204;-72
2022/03/24 05:31:02;;;;;;;22.83;14.30;;;2.80;99.90;;;;;;5063694;28;20188;-72
2022/03/24 05:33:27;;;;;;;26.87;17.80;;;3.30;99.90;;;;;;5066923;28;20247;-72
2022/03/24 05:35:53;;;;;;;22.00;14.00;;;3.30;99.90;;;;;;5053577;28;20600;-71
2022/03/24 05:38:18;;;;;;;28.60;14.93;;;2.90;99.90;;;;;;5069025;28;20171;-72
2022/03/24 05:40:44;;;;;;;24.30;16.10;;;2.90;99.90;;;;;;5051822;28;20177;-72
2022/03/24 05:43:10;;;;;;;27.27;15.47;;;2.90;99.90;;;;;;5051936;28;20176;-72
2022/03/24 05:45:36;;;;;;;24.50;14.30;;;2.80;99.90;;;;;;5050790;28;20177;-72
2022/03/24 05:48:02;;;;;;;22.20;13.50;;;2.90;99.90;;;;;;5047896;28;20806;-72
2022/03/24 05:50:29;;;;;;;20.63;12.50;;;2.80;99.90;;;;;;5062275;28;20233;-72
2022/03/24 05:52:56;;;;;;;24.23;14.30;;;3.00;99.90;;;;;;5076598;28;20468;-72
2022/03/24 05:55:23;;;;;;;21.97;13.50;;;3.00;99.90;;;;;;5062043;28;20439;-72
2022/03/24 05:57:49;;;;;;;21.00;13.73;;;2.90;99.90;;;;;;5067819;28;20415;-71
2022/03/24 06:00:15;;;;;;;19.57;13.17;;;3.00;99.90;;;;;;5065360;28;20787;-72
2022/03/24 06:02:41;;;;;;;25.23;13.23;;;2.90;99.90;;;;;;5067219;28;20493;-72
2022/03/24 06:05:12;;;;;;;22.50;14.73;;;3.00;99.90;;;;;;5052999;28;20193;-72
2022/03/24 06:07:38;;;;;;;22.97;13.90;;;3.00;99.90;;;;;;5047015;28;20901;-72
2022/03/24 06:10:05;;;;;;;22.03;13.70;;;3.50;99.90;;;;;;5057762;28;20462;-73
2022/03/24 06:12:32;;;;;;;21.50;14.07;;;3.10;99.90;;;;;;5067297;28;20816;-72
2022/03/24 06:14:58;;;;;;;23.50;13.30;;;3.10;99.90;;;;;;5053734;28;20426;-71
2022/03/24 06:17:24;;;;;;;23.73;14.57;;;3.30;99.90;;;;;;5066395;28;20416;-72
2022/03/24 06:19:52;;;;;;;24.07;15.30;;;3.50;99.90;;;;;;5055402;28;20836;-71
2022/03/24 06:22:18;;;;;;;23.53;15.23;;;3.80;99.90;;;;;;5070430;28;20180;-71
2022/03/24 06:24:43;;;;;;;23.50;15.03;;;3.80;99.90;;;;;;5058154;28;20771;-72
2022/03/24 06:27:09;;;;;;;20.87;14.10;;;4.20;99.90;;;;;;5064107;28;20174;-72
2022/03/24 06:29:35;;;;;;;24.30;14.73;;;5.00;99.90;;;;;;5062800;28;20265;-72
2022/03/24 06:32:01;;;;;;;26.17;15.60;;;5.90;99.90;;;;;;5067359;28;20176;-72
2022/03/24 06:34:27;;;;;;;23.70;14.90;;;6.20;99.90;;;;;;5058607;28;20805;-72
2022/03/24 06:36:54;;;;;;;22.57;15.57;;;7.00;99.90;;;;;;5060432;28;20221;-72
2022/03/24 06:39:20;;;;;;;26.47;16.00;;;7.60;99.90;;;;;;5060636;28;20789;-72
2022/03/24 06:41:45;;;;;;;23.50;15.20;;;8.40;99.90;;;;;;5066167;28;20426;-73
2022/03/24 06:44:11;;;;;;;22.73;15.23;;;9.00;99.90;;;;;;5060542;28;20483;-73
2022/03/24 06:46:38;;;;;;;26.87;16.80;;;9.20;99.20;;;;;;5066898;28;20186;-72
2022/03/24 06:49:05;;;;;;;24.93;15.20;;;9.10;99.40;;;;;;5065720;28;20222;-72
2022/03/24 06:51:31;;;;;;;24.50;16.10;;;8.90;99.00;;;;;;5066091;28;20487;-73
2022/03/24 06:53:56;;;;;;;19.53;14.50;;;8.70;98.90;;;;;;5071787;28;20470;-73
2022/03/24 06:56:22;;;;;;;21.67;15.13;;;8.80;99.40;;;;;;5061781;28;20433;-72
2022/03/24 06:58:48;;;;;;;22.50;14.17;;;9.20;99.20;;;;;;5045229;28;20197;-73
2022/03/24 07:01:14;;;;;;;22.97;14.93;;;9.60;99.30;;;;;;5045260;28;20181;-73
2022/03/24 07:03:40;;;;;;;21.17;13.90;;;9.60;98.20;;;;;;5047400;28;20188;-72
2022/03/24 07:06:06;;;;;;;21.07;14.43;;;9.40;99.20;;;;;;5052384;28;20434;-73
2022/03/24 07:08:32;;;;;;;28.83;15.10;;;9.20;99.10;;;;;;5060082;28;20656;-73
2022/03/24 07:10:57;;;;;;;21.50;13.53;;;9.10;99.10;;;;;;5065224;28;20180;-72
2022/03/24 07:13:23;;;;;;;21.57;14.90;;;9.00;99.00;;;;;;5066333;28;20201;-73
2022/03/24 07:15:49;;;;;;;18.15;13.93;;;9.00;99.10;;;;;;5065845;28;20889;-71
2022/03/24 07:18:15;;;;;;;19.57;14.77;;;10.10;94.60;;;;;;5059649;28;20549;-71
2022/03/24 07:20:41;;;;;;;23.60;14.97;;;10.10;95.00;;;;;;5054559;28;20183;-72
2022/03/24 07:23:08;;;;;;;21.93;13.90;;;10.70;93.30;;;;;;5077859;28;20426;-72
2022/03/24 07:25:36;;;;;;;17.90;14.30;;;11.40;86.90;;;;;;5072285;28;20181;-74
2022/03/24 07:28:05;;;;;;;21.47;14.70;;;12.20;84.90;;;;;;5054681;28;20882;-75
2022/03/24 07:30:31;;;;;;;21.00;15.57;;;13.10;75.10;;;;;;5052134;28;20454;-74
2022/03/24 07:32:59;;;;;;;23.33;17.77;;;13.80;68.40;;;;;;5051882;28;20486;-74
2022/03/24 07:35:27;;;;;;;29.40;19.53;;;14.60;64.80;;;;;;5050492;28;21012;-74
2022/03/24 07:37:53;;;;;;;32.20;20.13;;;15.20;61.40;;;;;;5066729;28;20413;-74
2022/03/24 07:40:21;;;;;;;26.80;20.30;;;15.70;57.80;;;;;;5069113;28;20445;-74
2022/03/24 07:42:49;;;;;;;27.40;20.67;;;16.10;54.00;;;;;;5060679;28;20454;-75
2022/03/24 07:45:14;;;;;;;27.63;20.70;;;16.20;52.10;;;;;;5071637;28;20500;-74
2022/03/24 07:48:07;;;;;;;27.27;19.90;;;16.70;51.70;;;;;;5063262;28;20438;-74
2022/03/24 07:50:38;;;;;;;24.50;19.07;;;17.00;43.90;;;;;;5064893;28;20176;-74
2022/03/24 07:53:23;;;;;;;23.00;19.20;;;17.30;44.10;;;;;;5071692;28;20544;-74
2022/03/24 07:55:49;;;;;;;26.03;19.33;;;17.80;44.50;;;;;;5058535;28;20431;-76
2022/03/24 07:58:17;;;;;;;31.40;20.93;;;18.90;43.30;;;;;;5062660;28;20484;-76
2022/03/24 08:00:43;;;;;;;30.90;20.07;;;19.00;45.60;;;;;;5063655;28;20168;-75
2022/03/24 08:03:13;;;;;;;29.10;19.97;;;19.30;45.20;;;;;;5064978;28;20432;-74
2022/03/24 08:05:39;;;;;;;23.13;19.30;;;19.80;42.10;;;;;;5063375;28;20413;-74
2022/03/24 08:08:05;;;;;;;23.90;18.47;;;20.20;38.70;;;;;;5059501;28;20792;-74
2022/03/24 08:10:31;;;;;;;25.40;19.70;;;20.70;36.40;;;;;;5066416;28;20258;-75
2022/03/24 08:12:57;;;;;;;24.87;20.20;;;21.20;33.60;;;;;;5077951;28;20940;-75
2022/03/24 08:15:23;;;;;;;22.47;17.90;;;21.40;32.10;;;;;;5062584;28;20183;-73
2022/03/24 08:17:48;;;;;;;29.23;20.47;;;21.80;28.50;;;;;;5053928;28;20549;-74
2022/03/24 08:20:15;;;;;;;24.57;19.47;;;21.80;28.90;;;;;;5049988;28;20204;-75
2022/03/24 08:22:41;;;;;;;25.27;18.83;;;21.50;26.50;;;;;;5070337;28;20218;-74
2022/03/24 08:25:09;;;;;;;24.60;19.87;;;21.80;28.40;;;;;;5064979;28;20186;-75
2022/03/24 08:27:35;;;;;;;27.60;19.73;;;22.50;24.50;;;;;;5061465;28;20343;-75
2022/03/24 08:30:03;;;;;;;25.07;19.90;;;22.40;23.40;;;;;;5060032;28;20322;-74
2022/03/24 08:32:28;;;;;;;24.27;19.40;;;22.80;23.90;;;;;;5062106;28;20183;-75
2022/03/24 08:34:54;;;;;;;26.57;20.30;;;23.40;22.50;;;;;;5050257;28;20200;-75
2022/03/24 08:37:19;;;;;;;28.37;20.50;;;24.20;19.70;;;;;;5064709;28;20660;-76
2022/03/24 08:39:45;;;;;;;26.70;21.07;;;24.20;18.60;;;;;;5062323;28;20301;-74
2022/03/24 08:42:10;;;;;;;27.97;21.80;;;24.40;16.20;;;;;;5069627;28;20349;-76
2022/03/24 08:44:36;;;;;;;25.63;20.47;;;24.50;15.70;;;;;;5056494;28;20184;-74
2022/03/24 08:47:02;;;;;;;23.83;19.63;;;24.70;15.20;;;;;;5052321;28;20221;-75
2022/03/24 08:49:28;;;;;;;26.27;20.05;;;25.00;11.70;;;;;;5064056;28;20196;-75
2022/03/24 08:51:53;;;;;;;29.73;20.25;;;25.50;11.40;;;;;;5050789;28;20184;-75
2022/03/24 08:54:19;;;;;;;23.75;18.90;;;25.20;12.30;;;;;;5053622;28;20228;-75
2022/03/24 08:56:45;;;;;;;26.95;20.70;;;25.40;10.50;;;;;;5072827;28;20210;-74
2022/03/24 08:59:10;;;;;;;28.15;19.52;;;25.60;9.60;;;;;;5078321;28;20781;-75
2022/03/24 09:01:37;;;;;;;25.25;20.05;;;25.40;9.50;;;;;;5068721;28;20183;-75
2022/03/24 09:04:02;;;;;;;23.33;19.55;;;25.90;7.30;;;;;;5057322;28;20179;-76
2022/03/24 09:06:28;;;;;;;21.33;18.95;;;26.30;8.00;;;;;;5060950;28;20245;-75
2022/03/24 09:08:54;;;;;;;24.15;19.30;;;27.30;7.10;;;;;;5064277;28;20691;-75
2022/03/24 09:11:19;;;;;;;27.98;19.45;;;27.60;4.80;;;;;;5069387;28;20613;-76
2022/03/24 09:13:45;;;;;;;23.90;20.20;;;28.30;2.40;;;;;;5062075;28;20296;-76
2022/03/24 09:16:11;;;;;;;31.23;19.83;;;28.40;1.00;;;;;;5051076;28;20697;-76
2022/03/24 09:18:37;;;;;;;23.38;19.08;;;28.50;1.00;;;;;;5065960;28;20204;-76
2022/03/24 09:21:03;;;;;;;23.50;19.92;;;29.20;1.00;;;;;;5069672;28;20228;-75
2022/03/24 09:23:29;;;;;;;24.20;19.95;;;29.20;1.00;;;;;;5075241;28;20196;-74
2022/03/24 09:25:55;;;;;;;26.88;19.35;;;29.50;1.00;;;;;;5071435;28;20192;-76
2022/03/24 09:28:22;;;;;;;29.88;19.92;;;29.40;1.00;;;;;;5067500;28;20183;-77
2022/03/24 09:30:49;;;;;;;23.42;19.48;;;29.40;1.00;;;;;;5054767;28;20180;-76
2022/03/24 09:33:15;;;;;;;24.65;20.73;;;28.90;1.00;;;;;;5055014;28;20682;-76
2022/03/24 09:35:40;;;;;;;25.50;20.20;;;29.20;1.00;;;;;;5058313;28;20303;-76
2022/03/24 09:38:06;;;;;;;21.65;19.13;;;30.00;1.00;;;;;;5069949;28;20168;-76
2022/03/24 09:40:32;;;;;;;26.00;20.52;;;30.00;1.00;;;;;;5057928;28;20199;-75
2022/03/24 09:43:00;;;;;;;26.75;21.05;;;30.30;1.00;;;;;;5055296;28;20495;-76
2022/03/24 09:45:25;;;;;;;26.50;20.15;;;30.80;1.00;;;;;;5064401;28;20180;-76
2022/03/24 09:47:51;;;;;;;26.15;20.50;;;31.10;1.00;;;;;;5062989;28;20551;-76
2022/03/24 09:50:18;;;;;;;25.25;21.10;;;31.20;1.00;;;;;;5074693;28;20275;-76
2022/03/24 09:52:44;;;;;;;35.13;21.48;;;31.30;1.00;;;;;;5066074;28;20623;-76
2022/03/24 09:55:10;;;;;;;37.53;23.38;;;31.30;1.00;;;;;;5062302;28;20232;-77
2022/03/24 09:57:36;;;;;;;25.90;21.30;;;31.70;1.00;;;;;;5048386;28;20238;-76
2022/03/24 10:00:03;;;;;;;26.80;20.33;;;32.30;1.00;;;;;;5066514;28;20199;-75
2022/03/24 10:02:29;;;;;;;34.90;21.40;;;32.40;1.00;;;;;;5062043;28;20191;-75
2022/03/24 10:05:01;;;;;;;28.65;20.73;;;32.80;1.00;;;;;;5056319;28;20249;-74
2022/03/24 10:07:28;;;;;;;27.90;22.05;;;33.10;1.00;;;;;;5059634;28;20256;-74
2022/03/24 10:09:59;;;;;;;31.80;22.05;;;33.10;1.00;;;;;;5065923;28;20188;-74
2022/03/24 10:12:28;;;;;;;30.90;22.40;;;32.70;1.00;;;;;;5063030;28;20457;-74
2022/03/24 10:15:11;;;;;;;30.20;22.33;;;33.80;1.00;;;;;;5067959;28;20287;-74
2022/03/24 10:17:39;;;;;;;30.30;22.23;;;33.80;1.00;;;;;;5066617;28;20206;-73
2022/03/24 10:20:08;;;;;;;28.40;22.67;;;33.20;1.00;;;;;;5049699;28;20200;-73
2022/03/24 10:22:35;;;;;;;38.85;22.95;;;33.70;1.00;;;;;;5073688;28;20176;-73
2022/03/24 10:25:05;;;;;;;32.17;24.45;;;34.60;1.00;;;;;;5058198;28;20171;-73
2022/03/24 10:27:31;;;;;;;30.73;25.20;;;34.60;1.00;;;;;;5065934;28;20184;-74
2022/03/24 10:29:59;;;;;;;30.88;24.85;;;34.10;1.00;;;;;;5058294;28;20223;-74
2022/03/24 10:32:32;;;;;;;30.73;25.02;;;34.00;1.00;;;;;;5050405;28;20175;-73
2022/03/24 10:35:09;;;;;;;32.25;25.20;;;34.50;1.00;;;;;;5074825;28;20201;-73
2022/03/24 10:37:35;;;;;;;34.67;26.05;;;34.50;1.00;;;;;;5066594;28;20228;-73
2022/03/24 10:40:05;;;;;;;34.03;25.70;;;34.90;1.00;;;;;;5066951;28;20215;-73
2022/03/24 10:42:36;;;;;;;32.15;25.55;;;35.30;1.00;;;;;;5063085;28;20545;-73
2022/03/24 10:45:19;;;;;;;28.60;23.55;;;35.50;1.00;;;;;;5059973;28;20171;-73
2022/03/24 10:47:50;;;;;;;32.13;23.67;;;35.20;1.00;;;;;;5065033;28;20199;-72
2022/03/24 10:50:20;;;;;;;48.17;25.10;;;35.50;1.00;;;;;;5067649;28;20184;-73
2022/03/24 10:52:46;;;;;;;27.73;23.55;;;35.70;1.00;;;;;;5076036;28;20171;-73
2022/03/24 10:55:12;;;;;;;30.45;23.60;;;35.90;1.00;;;;;;5084279;28;20182;-73
2022/03/24 10:57:38;;;;;;;33.92;24.33;;;36.00;1.00;;;;;;5067774;28;20541;-73
2022/03/24 11:00:04;;;;;;;35.38;24.40;;;36.30;1.00;;;;;;5071169;28;20219;-73
2022/03/24 11:02:31;;;;;;;30.38;23.27;;;37.00;1.00;;;;;;5083942;28;20621;-75
2022/03/24 11:05:02;;;;;;;31.88;25.45;;;37.30;1.00;;;;;;5087590;28;20190;-74
2022/03/24 11:07:28;;;;;;;34.72;25.92;;;37.00;1.00;;;;;;5077555;28;20180;-74
2022/03/24 11:09:53;;;;;;;29.75;24.92;;;37.10;1.00;;;;;;5077564;28;20184;-74
2022/03/24 11:12:27;;;;;;;35.38;27.30;;;37.10;1.00;;;;;;5065464;28;20198;-73
2022/03/24 11:15:04;;;;;;;35.08;26.83;;;37.10;1.00;;;;;;5067744;28;20737;-72
2022/03/24 11:17:31;;;;;;;33.63;28.02;;;36.80;1.00;;;;;;5071196;28;20637;-73
2022/03/24 11:20:21;;;;;;;37.05;27.30;;;36.20;1.00;;;;;;5065672;28;20211;-73
2022/03/24 11:22:56;;;;;;;32.00;26.13;;;36.90;1.00;;;;;;5071056;28;20172;-73
2022/03/24 11:25:23;;;;;;;34.92;26.95;;;37.00;1.00;;;;;;5074840;28;20175;-73
2022/03/24 11:27:51;;;;;;;34.42;25.80;;;36.80;1.00;;;;;;5070906;28;20171;-73
2022/03/24 11:30:18;;;;;;;30.60;25.30;;;36.50;1.00;;;;;;5065585;28;20327;-74
2022/03/24 11:32:46;;;;;;;30.58;25.40;;;36.90;1.00;;;;;;5051443;28;20161;-74
2022/03/24 11:35:13;;;;;;;35.50;25.40;;;37.60;1.00;;;;;;5050942;28;20735;-74
2022/03/24 11:37:39;;;;;;;30.05;25.27;;;37.80;1.00;;;;;;5051538;28;20164;-73
2022/03/24 11:40:10;;;;;;;33.55;25.77;;;37.50;1.00;;;;;;5066783;28;20188;-73
2022/03/24 11:42:48;;;;;;;27.85;24.75;;;37.00;1.00;;;;;;5067668;28;20176;-72
2022/03/24 11:45:40;;;;;;;28.80;24.30;;;36.90;1.00;;;;;;5077711;28;20171;-73
2022/03/24 11:48:11;;;;;;;30.35;24.67;;;37.40;1.00;;;;;;5059968;28;20168;-72
2022/03/24 11:50:55;;;;;;;30.52;25.60;;;38.10;1.00;;;;;;5067389;28;20263;-73
2022/03/24 11:53:30;;;;;;;33.53;25.77;;;37.80;1.00;;;;;;5078885;28;20286;-72
2022/03/24 11:55:59;;;;;;;31.38;25.67;;;37.30;1.00;;;;;;5084365;28;20166;-73
2022/03/24 11:58:34;;;;;;;30.02;25.05;;;37.90;1.00;;;;;;5083755;28;20194;-74
2022/03/24 12:01:19;;;;;;;31.73;25.42;;;38.40;1.00;;;;;;5062086;28;20211;-73
2022/03/24 12:03:48;;;;;;;36.70;25.27;;;37.80;1.00;;;;;;5056057;28;20230;-73
2022/03/24 12:06:19;;;;;;;31.98;25.05;;;37.30;1.00;;;;;;5069608;28;20172;-74
2022/03/24 12:08:51;;;;;;;37.25;25.13;;;36.30;1.00;;;;;;5077911;28;20203;-73
2022/03/24 12:11:32;;;;;;;40.22;26.70;;;36.00;1.00;;;;;;5074354;28;20202;-73
2022/03/24 12:14:19;;;;;;;35.65;25.67;;;36.60;1.00;;;;;;5069590;28;20226;-74
2022/03/24 12:16:48;;;;;;;32.75;24.98;;;36.90;1.00;;;;;;5067245;28;20177;-73
2022/03/24 12:19:36;;;;;;;35.10;25.90;;;36.40;1.00;;;;;;5073859;28;20679;-73
2022/03/24 12:22:31;;;;;;;34.35;26.00;;;36.50;1.00;;;;;;5071893;28;20199;-74
2022/03/24 12:24:59;;;;;;;32.92;26.50;;;36.80;1.00;;;;;;5066869;28;20172;-74
2022/03/24 12:27:51;;;;;;;32.53;24.45;;;36.80;1.00;;;;;;5061458;28;20184;-74
2022/03/24 12:30:18;;;;;;;29.48;24.48;;;37.20;1.00;;;;;;5064071;28;20290;-74
2022/03/24 12:33:03;;;;;;;27.48;22.95;;;38.30;1.00;;;;;;5077481;28;20209;-73
2022/03/24 12:35:49;;;;;;;25.95;22.75;;;38.10;1.00;;;;;;5058748;28;20230;-73
2022/03/24 12:38:26;;;;;;;28.52;23.58;;;38.60;1.00;;;;;;5060908;28;20177;-74